sensor_id;sensor_type;location;lat;lon;timestamp;P1;durP1;ratioP1;P2;durP2;ratioP2
20012;SDS011;76844;42.852;23.042;2024-02-26T00:00:20;31.67;;;18.90;;
20012;SDS011;76844;42.852;23.042;2024-02-26T00:02:50;30.88;;;19.70;;
20012;SDS011;76844;42.852;23.042;2024-02-26T00:05:19;26.92;;;18.00;;
20012;SDS011;76844;42.852;23.042;2024-02-26T00:07:49;32.33;;;19.25;;
20012;SDS011;76844;42.852;23.042;2024-02-26T00:10:18;33.08;;;19.35;;
20012;SDS011;76844;42.852;23.042;2024-02-26T00:12:49;36.05;;;22.35;;
20012;SDS011;76844;42.852;23.042;2024-02-26T00:15:18;29.20;;;17.83;;
20012;SDS011;76844;42.852;23.042;2024-02-26T00:17:47;36.05;;;22.23;;
20012;SDS011;76844;42.852;23.042;2024-02-26T00:20:17;30.90;;;19.95;;
20012;SDS011;76844;42.852;23.042;2024-02-26T00:22:47;36.60;;;21.30;;
20012;SDS011;76844;42.852;23.042;2024-02-26T00:25:16;35.70;;;21.05;;
20012;SDS011;76844;42.852;23.042;2024-02-26T00:27:46;32.80;;;18.92;;
20012;SDS011;76844;42.852;23.042;2024-02-26T00:30:17;37.03;;;22.45;;
20012;SDS011;76844;42.852;23.042;2024-02-26T00:32:47;33.03;;;22.25;;
20012;SDS011;76844;42.852;23.042;2024-02-26T00:35:16;35.35;;;20.90;;
20012;SDS011;76844;42.852;23.042;2024-02-26T00:37:47;45.58;;;26.88;;
20012;SDS011;76844;42.852;23.042;2024-02-26T00:40:17;36.03;;;21.45;;
20012;SDS011;76844;42.852;23.042;2024-02-26T00:42:49;36.25;;;21.48;;
20012;SDS011;76844;42.852;23.042;2024-02-26T00:45:20;42.13;;;24.77;;
20012;SDS011;76844;42.852;23.042;2024-02-26T00:47:49;37.70;;;21.70;;
20012;SDS011;76844;42.852;23.042;2024-02-26T00:50:18;35.42;;;23.20;;
20012;SDS011;76844;42.852;23.042;2024-02-26T00:52:48;30.00;;;20.23;;
20012;SDS011;76844;42.852;23.042;2024-02-26T00:55:17;38.53;;;22.77;;
20012;SDS011;76844;42.852;23.042;2024-02-26T00:57:46;40.83;;;25.17;;
20012;SDS011;76844;42.852;23.042;2024-02-26T01:00:16;43.92;;;26.05;;
20012;SDS011;76844;42.852;23.042;2024-02-26T01:02:47;36.42;;;23.33;;
20012;SDS011;76844;42.852;23.042;2024-02-26T01:05:17;34.08;;;20.65;;
20012;SDS011;76844;42.852;23.042;2024-02-26T01:07:47;33.47;;;21.00;;
20012;SDS011;76844;42.852;23.042;2024-02-26T01:10:16;35.85;;;21.77;;
20012;SDS011;76844;42.852;23.042;2024-02-26T01:12:46;39.83;;;24.42;;
20012;SDS011;76844;42.852;23.042;2024-02-26T01:15:16;36.55;;;21.83;;
20012;SDS011;76844;42.852;23.042;2024-02-26T01:20:19;37.70;;;23.35;;
20012;SDS011;76844;42.852;23.042;2024-02-26T01:22:49;34.50;;;20.67;;
20012;SDS011;76844;42.852;23.042;2024-02-26T01:25:18;35.15;;;21.58;;
20012;SDS011;76844;42.852;23.042;2024-02-26T01:27:48;32.75;;;21.25;;
20012;SDS011;76844;42.852;23.042;2024-02-26T01:30:17;35.50;;;21.83;;
20012;SDS011;76844;42.852;23.042;2024-02-26T01:32:47;38.65;;;24.90;;
20012;SDS011;76844;42.852;23.042;2024-02-26T01:35:22;33.47;;;20.35;;
20012;SDS011;76844;42.852;23.042;2024-02-26T01:37:51;42.05;;;25.88;;
20012;SDS011;76844;42.852;23.042;2024-02-26T01:40:20;36.15;;;22.35;;
20012;SDS011;76844;42.852;23.042;2024-02-26T01:42:50;36.08;;;23.63;;
20012;SDS011;76844;42.852;23.042;2024-02-26T01:45:21;37.28;;;23.30;;
20012;SDS011;76844;42.852;23.042;2024-02-26T01:47:52;32.05;;;20.88;;
20012;SDS011;76844;42.852;23.042;2024-02-26T01:50:24;32.90;;;21.02;;
20012;SDS011;76844;42.852;23.042;2024-02-26T01:52:54;33.17;;;22.05;;
20012;SDS011;76844;42.852;23.042;2024-02-26T01:55:25;44.53;;;26.30;;
20012;SDS011;76844;42.852;23.042;2024-02-26T01:57:55;34.65;;;20.40;;
20012;SDS011;76844;42.852;23.042;2024-02-26T02:00:25;29.83;;;20.05;;
20012;SDS011;76844;42.852;23.042;2024-02-26T02:02:55;33.22;;;21.35;;
20012;SDS011;76844;42.852;23.042;2024-02-26T02:05:26;38.47;;;22.95;;
20012;SDS011;76844;42.852;23.042;2024-02-26T02:07:56;35.92;;;21.45;;
20012;SDS011;76844;42.852;23.042;2024-02-26T02:10:26;36.00;;;21.30;;
20012;SDS011;76844;42.852;23.042;2024-02-26T02:12:56;44.75;;;24.73;;
20012;SDS011;76844;42.852;23.042;2024-02-26T02:15:25;33.28;;;19.90;;
20012;SDS011;76844;42.852;23.042;2024-02-26T02:17:55;37.38;;;22.00;;
20012;SDS011;76844;42.852;23.042;2024-02-26T02:20:26;46.15;;;24.77;;
20012;SDS011;76844;42.852;23.042;2024-02-26T02:23:02;41.83;;;23.30;;
20012;SDS011;76844;42.852;23.042;2024-02-26T02:25:31;36.95;;;22.67;;
20012;SDS011;76844;42.852;23.042;2024-02-26T02:28:01;35.03;;;22.27;;
20012;SDS011;76844;42.852;23.042;2024-02-26T02:30:30;42.85;;;25.17;;
20012;SDS011;76844;42.852;23.042;2024-02-26T02:33:03;39.67;;;24.58;;
20012;SDS011;76844;42.852;23.042;2024-02-26T02:35:34;35.05;;;21.42;;
20012;SDS011;76844;42.852;23.042;2024-02-26T02:38:04;39.45;;;24.73;;
20012;SDS011;76844;42.852;23.042;2024-02-26T02:40:34;37.03;;;21.98;;
20012;SDS011;76844;42.852;23.042;2024-02-26T02:43:03;31.33;;;21.00;;
20012;SDS011;76844;42.852;23.042;2024-02-26T02:45:33;33.75;;;21.00;;
20012;SDS011;76844;42.852;23.042;2024-02-26T02:48:02;30.85;;;19.40;;
20012;SDS011;76844;42.852;23.042;2024-02-26T02:50:33;27.50;;;18.00;;
20012;SDS011;76844;42.852;23.042;2024-02-26T02:53:03;29.92;;;19.20;;
20012;SDS011;76844;42.852;23.042;2024-02-26T02:55:33;25.48;;;16.08;;
20012;SDS011;76844;42.852;23.042;2024-02-26T02:58:03;30.83;;;20.50;;
20012;SDS011;76844;42.852;23.042;2024-02-26T03:00:32;32.90;;;20.65;;
20012;SDS011;76844;42.852;23.042;2024-02-26T03:03:02;28.42;;;19.90;;
20012;SDS011;76844;42.852;23.042;2024-02-26T03:05:32;28.20;;;19.00;;
20012;SDS011;76844;42.852;23.042;2024-02-26T03:08:03;33.35;;;19.85;;
20012;SDS011;76844;42.852;23.042;2024-02-26T03:10:32;35.05;;;21.17;;
20012;SDS011;76844;42.852;23.042;2024-02-26T03:13:02;31.17;;;19.75;;
20012;SDS011;76844;42.852;23.042;2024-02-26T03:15:31;35.90;;;22.70;;
20012;SDS011;76844;42.852;23.042;2024-02-26T03:18:01;45.35;;;30.33;;
20012;SDS011;76844;42.852;23.042;2024-02-26T03:20:30;42.35;;;28.83;;
20012;SDS011;76844;42.852;23.042;2024-02-26T03:23:00;41.75;;;25.77;;
20012;SDS011;76844;42.852;23.042;2024-02-26T03:25:31;33.55;;;20.92;;
20012;SDS011;76844;42.852;23.042;2024-02-26T03:28:00;29.25;;;19.98;;
20012;SDS011;76844;42.852;23.042;2024-02-26T03:30:29;29.33;;;18.95;;
20012;SDS011;76844;42.852;23.042;2024-02-26T03:32:59;27.13;;;18.42;;
20012;SDS011;76844;42.852;23.042;2024-02-26T03:35:28;33.05;;;20.77;;
20012;SDS011;76844;42.852;23.042;2024-02-26T03:37:58;25.98;;;17.67;;
20012;SDS011;76844;42.852;23.042;2024-02-26T03:40:27;37.63;;;23.02;;
20012;SDS011;76844;42.852;23.042;2024-02-26T03:42:58;38.15;;;23.02;;
20012;SDS011;76844;42.852;23.042;2024-02-26T03:45:27;34.22;;;22.52;;
20012;SDS011;76844;42.852;23.042;2024-02-26T03:47:59;33.75;;;21.63;;
20012;SDS011;76844;42.852;23.042;2024-02-26T03:50:28;28.38;;;17.60;;
20012;SDS011;76844;42.852;23.042;2024-02-26T03:52:58;29.85;;;20.08;;
20012;SDS011;76844;42.852;23.042;2024-02-26T03:55:27;31.48;;;20.27;;
20012;SDS011;76844;42.852;23.042;2024-02-26T03:57:59;32.13;;;21.25;;
20012;SDS011;76844;42.852;23.042;2024-02-26T04:00:31;48.17;;;27.20;;
20012;SDS011;76844;42.852;23.042;2024-02-26T04:03:00;30.33;;;20.73;;
20012;SDS011;76844;42.852;23.042;2024-02-26T04:05:30;48.47;;;29.25;;
20012;SDS011;76844;42.852;23.042;2024-02-26T04:07:59;41.72;;;26.20;;
20012;SDS011;76844;42.852;23.042;2024-02-26T04:10:31;44.65;;;27.65;;
20012;SDS011;76844;42.852;23.042;2024-02-26T04:13:03;43.90;;;27.98;;
20012;SDS011;76844;42.852;23.042;2024-02-26T04:15:33;36.78;;;24.55;;
20012;SDS011;76844;42.852;23.042;2024-02-26T04:18:02;34.40;;;21.60;;
20012;SDS011;76844;42.852;23.042;2024-02-26T04:20:32;36.85;;;22.85;;
20012;SDS011;76844;42.852;23.042;2024-02-26T04:23:02;38.03;;;23.45;;
20012;SDS011;76844;42.852;23.042;2024-02-26T04:25:31;47.00;;;27.80;;
20012;SDS011;76844;42.852;23.042;2024-02-26T04:28:02;60.20;;;32.95;;
20012;SDS011;76844;42.852;23.042;2024-02-26T04:30:32;85.18;;;42.53;;
20012;SDS011;76844;42.852;23.042;2024-02-26T04:33:02;54.50;;;32.95;;
20012;SDS011;76844;42.852;23.042;2024-02-26T04:35:32;65.07;;;37.38;;
20012;SDS011;76844;42.852;23.042;2024-02-26T04:38:02;48.83;;;29.85;;
20012;SDS011;76844;42.852;23.042;2024-02-26T04:40:32;53.35;;;32.58;;
20012;SDS011;76844;42.852;23.042;2024-02-26T04:43:03;47.92;;;29.92;;
20012;SDS011;76844;42.852;23.042;2024-02-26T04:45:32;90.25;;;36.80;;
20012;SDS011;76844;42.852;23.042;2024-02-26T04:48:02;94.15;;;34.28;;
20012;SDS011;76844;42.852;23.042;2024-02-26T04:50:32;75.40;;;31.08;;
20012;SDS011;76844;42.852;23.042;2024-02-26T04:53:01;68.00;;;32.42;;
20012;SDS011;76844;42.852;23.042;2024-02-26T04:55:30;42.67;;;24.45;;
20012;SDS011;76844;42.852;23.042;2024-02-26T04:58:00;54.40;;;32.92;;
20012;SDS011;76844;42.852;23.042;2024-02-26T05:00:31;46.25;;;28.40;;
20012;SDS011;76844;42.852;23.042;2024-02-26T05:03:00;40.88;;;25.65;;
20012;SDS011;76844;42.852;23.042;2024-02-26T05:05:30;45.22;;;27.35;;
20012;SDS011;76844;42.852;23.042;2024-02-26T05:07:59;40.20;;;25.45;;
20012;SDS011;76844;42.852;23.042;2024-02-26T05:10:30;38.35;;;25.20;;
20012;SDS011;76844;42.852;23.042;2024-02-26T05:13:00;36.28;;;24.85;;
20012;SDS011;76844;42.852;23.042;2024-02-26T05:15:31;39.45;;;25.88;;
20012;SDS011;76844;42.852;23.042;2024-02-26T05:18:00;37.83;;;23.85;;
20012;SDS011;76844;42.852;23.042;2024-02-26T05:20:29;37.67;;;23.27;;
20012;SDS011;76844;42.852;23.042;2024-02-26T05:23:02;32.40;;;22.08;;
20012;SDS011;76844;42.852;23.042;2024-02-26T05:25:32;35.47;;;22.17;;
20012;SDS011;76844;42.852;23.042;2024-02-26T05:28:01;32.33;;;21.73;;
20012;SDS011;76844;42.852;23.042;2024-02-26T05:30:32;31.95;;;20.70;;
20012;SDS011;76844;42.852;23.042;2024-02-26T05:33:01;32.33;;;20.85;;
20012;SDS011;76844;42.852;23.042;2024-02-26T05:35:31;36.25;;;22.65;;
20012;SDS011;76844;42.852;23.042;2024-02-26T05:38:00;36.83;;;23.33;;
20012;SDS011;76844;42.852;23.042;2024-02-26T05:40:30;33.88;;;23.60;;
20012;SDS011;76844;42.852;23.042;2024-02-26T05:43:00;34.78;;;23.85;;
20012;SDS011;76844;42.852;23.042;2024-02-26T05:45:29;37.78;;;24.42;;
20012;SDS011;76844;42.852;23.042;2024-02-26T05:48:01;35.72;;;21.95;;
20012;SDS011;76844;42.852;23.042;2024-02-26T05:50:31;56.35;;;37.20;;
20012;SDS011;76844;42.852;23.042;2024-02-26T05:53:00;53.08;;;36.08;;
20012;SDS011;76844;42.852;23.042;2024-02-26T05:55:30;55.25;;;35.28;;
20012;SDS011;76844;42.852;23.042;2024-02-26T05:57:59;52.33;;;32.13;;
20012;SDS011;76844;42.852;23.042;2024-02-26T06:00:28;45.80;;;28.40;;
20012;SDS011;76844;42.852;23.042;2024-02-26T06:03:00;44.60;;;27.55;;
20012;SDS011;76844;42.852;23.042;2024-02-26T06:05:29;44.60;;;27.77;;
20012;SDS011;76844;42.852;23.042;2024-02-26T06:08:00;43.88;;;29.48;;
20012;SDS011;76844;42.852;23.042;2024-02-26T06:10:30;51.45;;;30.48;;
20012;SDS011;76844;42.852;23.042;2024-02-26T06:12:59;48.08;;;28.00;;
20012;SDS011;76844;42.852;23.042;2024-02-26T06:15:29;48.10;;;27.63;;
20012;SDS011;76844;42.852;23.042;2024-02-26T06:18:00;48.05;;;29.15;;
20012;SDS011;76844;42.852;23.042;2024-02-26T06:20:29;53.42;;;33.78;;
20012;SDS011;76844;42.852;23.042;2024-02-26T06:22:59;48.35;;;29.83;;
20012;SDS011;76844;42.852;23.042;2024-02-26T06:25:28;51.03;;;31.55;;
20012;SDS011;76844;42.852;23.042;2024-02-26T06:27:57;46.10;;;28.33;;
20012;SDS011;76844;42.852;23.042;2024-02-26T06:30:30;48.28;;;29.83;;
20012;SDS011;76844;42.852;23.042;2024-02-26T06:33:01;49.63;;;30.15;;
20012;SDS011;76844;42.852;23.042;2024-02-26T06:35:31;52.45;;;30.55;;
20012;SDS011;76844;42.852;23.042;2024-02-26T06:38:01;58.50;;;34.33;;
20012;SDS011;76844;42.852;23.042;2024-02-26T06:40:32;54.58;;;34.40;;
20012;SDS011;76844;42.852;23.042;2024-02-26T06:43:02;62.13;;;37.20;;
20012;SDS011;76844;42.852;23.042;2024-02-26T06:45:31;63.72;;;40.33;;
20012;SDS011;76844;42.852;23.042;2024-02-26T06:48:03;46.33;;;28.80;;
20012;SDS011;76844;42.852;23.042;2024-02-26T06:50:32;43.83;;;28.75;;
20012;SDS011;76844;42.852;23.042;2024-02-26T06:53:02;62.88;;;40.95;;
20012;SDS011;76844;42.852;23.042;2024-02-26T06:55:33;61.20;;;36.95;;
20012;SDS011;76844;42.852;23.042;2024-02-26T06:58:04;49.75;;;32.42;;
20012;SDS011;76844;42.852;23.042;2024-02-26T07:00:34;45.97;;;30.63;;
20012;SDS011;76844;42.852;23.042;2024-02-26T07:03:08;58.63;;;36.63;;
20012;SDS011;76844;42.852;23.042;2024-02-26T07:24:25;38.17;;;24.33;;
20012;SDS011;76844;42.852;23.042;2024-02-26T07:26:55;34.10;;;20.77;;
20012;SDS011;76844;42.852;23.042;2024-02-26T07:29:28;80.50;;;38.78;;
20012;SDS011;76844;42.852;23.042;2024-02-26T07:31:57;68.80;;;41.90;;
20012;SDS011;76844;42.852;23.042;2024-02-26T07:34:27;68.65;;;40.42;;
20012;SDS011;76844;42.852;23.042;2024-02-26T07:36:57;68.13;;;42.45;;
20012;SDS011;76844;42.852;23.042;2024-02-26T07:39:30;55.15;;;35.53;;
20012;SDS011;76844;42.852;23.042;2024-02-26T07:41:59;60.95;;;37.47;;
20012;SDS011;76844;42.852;23.042;2024-02-26T07:44:29;66.85;;;41.42;;
20012;SDS011;76844;42.852;23.042;2024-02-26T07:46:59;52.28;;;34.83;;
20012;SDS011;76844;42.852;23.042;2024-02-26T07:49:30;82.90;;;48.92;;
20012;SDS011;76844;42.852;23.042;2024-02-26T07:52:05;65.60;;;39.05;;
20012;SDS011;76844;42.852;23.042;2024-02-26T07:54:36;45.38;;;24.23;;
20012;SDS011;76844;42.852;23.042;2024-02-26T07:57:05;42.30;;;21.95;;
20012;SDS011;76844;42.852;23.042;2024-02-26T07:59:35;51.08;;;27.17;;
20012;SDS011;76844;42.852;23.042;2024-02-26T08:02:06;44.33;;;26.92;;
20012;SDS011;76844;42.852;23.042;2024-02-26T08:04:36;53.13;;;32.70;;
20012;SDS011;76844;42.852;23.042;2024-02-26T08:07:05;45.78;;;26.42;;
20012;SDS011;76844;42.852;23.042;2024-02-26T08:09:36;49.53;;;27.42;;
20012;SDS011;76844;42.852;23.042;2024-02-26T08:12:06;55.20;;;29.98;;
20012;SDS011;76844;42.852;23.042;2024-02-26T08:14:37;47.42;;;25.23;;
20012;SDS011;76844;42.852;23.042;2024-02-26T08:17:06;28.55;;;15.73;;
20012;SDS011;76844;42.852;23.042;2024-02-26T08:19:36;74.95;;;40.60;;
20012;SDS011;76844;42.852;23.042;2024-02-26T08:22:06;66.88;;;36.75;;
20012;SDS011;76844;42.852;23.042;2024-02-26T08:24:39;32.35;;;17.48;;
20012;SDS011;76844;42.852;23.042;2024-02-26T08:27:08;24.90;;;12.75;;
20012;SDS011;76844;42.852;23.042;2024-02-26T08:29:39;22.35;;;12.48;;
20012;SDS011;76844;42.852;23.042;2024-02-26T08:32:09;17.17;;;12.60;;
20012;SDS011;76844;42.852;23.042;2024-02-26T08:34:39;19.38;;;12.10;;
20012;SDS011;76844;42.852;23.042;2024-02-26T08:37:09;20.67;;;13.80;;
20012;SDS011;76844;42.852;23.042;2024-02-26T08:39:41;18.27;;;13.50;;
20012;SDS011;76844;42.852;23.042;2024-02-26T08:42:11;25.52;;;13.05;;
20012;SDS011;76844;42.852;23.042;2024-02-26T08:44:40;18.73;;;12.35;;
20012;SDS011;76844;42.852;23.042;2024-02-26T08:47:11;26.08;;;16.10;;
20012;SDS011;76844;42.852;23.042;2024-02-26T08:49:42;22.23;;;14.90;;
20012;SDS011;76844;42.852;23.042;2024-02-26T08:52:13;22.35;;;13.35;;
20012;SDS011;76844;42.852;23.042;2024-02-26T08:54:44;15.73;;;11.77;;
20012;SDS011;76844;42.852;23.042;2024-02-26T08:57:15;22.75;;;12.73;;
20012;SDS011;76844;42.852;23.042;2024-02-26T08:59:45;23.10;;;12.50;;
20012;SDS011;76844;42.852;23.042;2024-02-26T09:02:16;29.92;;;13.40;;
20012;SDS011;76844;42.852;23.042;2024-02-26T09:04:47;32.00;;;15.55;;
20012;SDS011;76844;42.852;23.042;2024-02-26T09:07:18;18.85;;;11.77;;
20012;SDS011;76844;42.852;23.042;2024-02-26T09:09:50;19.00;;;11.05;;
20012;SDS011;76844;42.852;23.042;2024-02-26T09:12:19;20.52;;;12.82;;
20012;SDS011;76844;42.852;23.042;2024-02-26T09:14:49;17.63;;;12.95;;
20012;SDS011;76844;42.852;23.042;2024-02-26T09:17:19;21.15;;;12.52;;
20012;SDS011;76844;42.852;23.042;2024-02-26T09:19:49;19.20;;;12.93;;
20012;SDS011;76844;42.852;23.042;2024-02-26T09:22:19;18.90;;;12.68;;
20012;SDS011;76844;42.852;23.042;2024-02-26T09:24:50;20.25;;;14.73;;
20012;SDS011;76844;42.852;23.042;2024-02-26T09:27:20;19.30;;;13.48;;
20012;SDS011;76844;42.852;23.042;2024-02-26T09:29:51;17.30;;;12.20;;
20012;SDS011;76844;42.852;23.042;2024-02-26T09:32:20;18.95;;;12.75;;
20012;SDS011;76844;42.852;23.042;2024-02-26T09:34:52;21.38;;;15.40;;
20012;SDS011;76844;42.852;23.042;2024-02-26T09:37:22;18.48;;;12.13;;
20012;SDS011;76844;42.852;23.042;2024-02-26T09:39:53;18.25;;;12.88;;
20012;SDS011;76844;42.852;23.042;2024-02-26T09:42:23;16.30;;;11.75;;
20012;SDS011;76844;42.852;23.042;2024-02-26T09:44:55;18.27;;;11.32;;
20012;SDS011;76844;42.852;23.042;2024-02-26T09:47:31;17.73;;;10.13;;
20012;SDS011;76844;42.852;23.042;2024-02-26T09:50:01;16.15;;;10.20;;
20012;SDS011;76844;42.852;23.042;2024-02-26T09:52:31;16.77;;;10.00;;
20012;SDS011;76844;42.852;23.042;2024-02-26T09:55:05;19.33;;;10.45;;
20012;SDS011;76844;42.852;23.042;2024-02-26T09:57:37;19.23;;;8.75;;
20012;SDS011;76844;42.852;23.042;2024-02-26T10:00:08;19.88;;;10.27;;
20012;SDS011;76844;42.852;23.042;2024-02-26T10:02:43;16.58;;;8.73;;
20012;SDS011;76844;42.852;23.042;2024-02-26T10:05:16;14.63;;;8.52;;
20012;SDS011;76844;42.852;23.042;2024-02-26T10:07:47;16.02;;;9.95;;
20012;SDS011;76844;42.852;23.042;2024-02-26T10:10:18;19.55;;;10.15;;
20012;SDS011;76844;42.852;23.042;2024-02-26T10:12:48;21.75;;;11.88;;
20012;SDS011;76844;42.852;23.042;2024-02-26T10:15:18;15.63;;;9.63;;
20012;SDS011;76844;42.852;23.042;2024-02-26T10:17:47;18.08;;;9.65;;
20012;SDS011;76844;42.852;23.042;2024-02-26T10:20:17;17.77;;;10.15;;
20012;SDS011;76844;42.852;23.042;2024-02-26T10:22:49;18.00;;;9.88;;
20012;SDS011;76844;42.852;23.042;2024-02-26T10:25:21;23.50;;;10.65;;
20012;SDS011;76844;42.852;23.042;2024-02-26T10:27:51;20.92;;;10.00;;
20012;SDS011;76844;42.852;23.042;2024-02-26T10:30:22;15.38;;;10.85;;
20012;SDS011;76844;42.852;23.042;2024-02-26T10:32:54;17.17;;;10.88;;
20012;SDS011;76844;42.852;23.042;2024-02-26T10:35:24;17.23;;;11.55;;
20012;SDS011;76844;42.852;23.042;2024-02-26T10:37:56;17.40;;;10.52;;
20012;SDS011;76844;42.852;23.042;2024-02-26T10:40:27;15.80;;;10.45;;
20012;SDS011;76844;42.852;23.042;2024-02-26T10:42:57;18.13;;;10.88;;
20012;SDS011;76844;42.852;23.042;2024-02-26T10:45:28;19.30;;;12.57;;
20012;SDS011;76844;42.852;23.042;2024-02-26T10:48:00;17.00;;;11.18;;
20012;SDS011;76844;42.852;23.042;2024-02-26T10:50:29;19.17;;;12.05;;
20012;SDS011;76844;42.852;23.042;2024-02-26T10:53:02;13.45;;;10.13;;
20012;SDS011;76844;42.852;23.042;2024-02-26T10:55:35;15.40;;;9.85;;
20012;SDS011;76844;42.852;23.042;2024-02-26T10:58:05;17.35;;;10.52;;
20012;SDS011;76844;42.852;23.042;2024-02-26T11:00:38;13.73;;;9.77;;
20012;SDS011;76844;42.852;23.042;2024-02-26T11:03:09;18.65;;;8.88;;
20012;SDS011;76844;42.852;23.042;2024-02-26T11:05:41;14.20;;;8.68;;
20012;SDS011;76844;42.852;23.042;2024-02-26T11:08:11;20.98;;;10.70;;
20012;SDS011;76844;42.852;23.042;2024-02-26T11:10:42;19.27;;;10.15;;
20012;SDS011;76844;42.852;23.042;2024-02-26T11:13:17;18.48;;;9.82;;
20012;SDS011;76844;42.852;23.042;2024-02-26T11:15:47;18.60;;;9.68;;
20012;SDS011;76844;42.852;23.042;2024-02-26T11:18:20;18.75;;;8.63;;
20012;SDS011;76844;42.852;23.042;2024-02-26T11:20:53;14.85;;;7.95;;
20012;SDS011;76844;42.852;23.042;2024-02-26T11:23:27;13.27;;;8.43;;
20012;SDS011;76844;42.852;23.042;2024-02-26T11:25:59;12.57;;;7.50;;
20012;SDS011;76844;42.852;23.042;2024-02-26T11:28:32;15.60;;;7.53;;
20012;SDS011;76844;42.852;23.042;2024-02-26T11:31:04;19.33;;;11.65;;
20012;SDS011;76844;42.852;23.042;2024-02-26T11:33:36;21.23;;;9.45;;
20012;SDS011;76844;42.852;23.042;2024-02-26T11:36:07;17.45;;;10.68;;
20012;SDS011;76844;42.852;23.042;2024-02-26T11:38:38;11.43;;;6.73;;
20012;SDS011;76844;42.852;23.042;2024-02-26T11:41:13;14.65;;;7.93;;
20012;SDS011;76844;42.852;23.042;2024-02-26T11:43:50;13.93;;;7.72;;
20012;SDS011;76844;42.852;23.042;2024-02-26T11:46:26;11.52;;;7.10;;
20012;SDS011;76844;42.852;23.042;2024-02-26T11:48:59;13.23;;;7.50;;
20012;SDS011;76844;42.852;23.042;2024-02-26T11:51:34;12.90;;;7.00;;
20012;SDS011;76844;42.852;23.042;2024-02-26T11:54:05;16.52;;;9.68;;
20012;SDS011;76844;42.852;23.042;2024-02-26T11:56:43;16.98;;;8.98;;
20012;SDS011;76844;42.852;23.042;2024-02-26T11:59:19;22.02;;;9.98;;
20012;SDS011;76844;42.852;23.042;2024-02-26T12:02:09;11.95;;;8.18;;
20012;SDS011;76844;42.852;23.042;2024-02-26T12:04:42;12.30;;;7.78;;
20012;SDS011;76844;42.852;23.042;2024-02-26T12:07:14;11.18;;;7.38;;
20012;SDS011;76844;42.852;23.042;2024-02-26T12:09:47;12.25;;;7.53;;
20012;SDS011;76844;42.852;23.042;2024-02-26T12:12:19;15.30;;;7.68;;
20012;SDS011;76844;42.852;23.042;2024-02-26T12:14:55;11.07;;;7.97;;
20012;SDS011;76844;42.852;23.042;2024-02-26T12:17:27;10.23;;;6.80;;
20012;SDS011;76844;42.852;23.042;2024-02-26T12:20:07;14.43;;;8.25;;
20012;SDS011;76844;42.852;23.042;2024-02-26T12:22:40;13.60;;;7.85;;
20012;SDS011;76844;42.852;23.042;2024-02-26T12:25:10;10.75;;;6.43;;
20012;SDS011;76844;42.852;23.042;2024-02-26T12:27:43;22.30;;;7.82;;
20012;SDS011;76844;42.852;23.042;2024-02-26T12:30:16;15.90;;;9.38;;
20012;SDS011;76844;42.852;23.042;2024-02-26T12:32:49;10.35;;;6.45;;
20012;SDS011;76844;42.852;23.042;2024-02-26T12:35:25;8.65;;;5.65;;
20012;SDS011;76844;42.852;23.042;2024-02-26T12:37:55;13.63;;;7.25;;
20012;SDS011;76844;42.852;23.042;2024-02-26T12:40:29;13.77;;;5.90;;
20012;SDS011;76844;42.852;23.042;2024-02-26T12:43:06;16.05;;;6.32;;
20012;SDS011;76844;42.852;23.042;2024-02-26T12:45:40;11.18;;;6.10;;
20012;SDS011;76844;42.852;23.042;2024-02-26T12:48:14;16.27;;;6.07;;
20012;SDS011;76844;42.852;23.042;2024-02-26T12:50:46;11.60;;;6.10;;
20012;SDS011;76844;42.852;23.042;2024-02-26T12:53:18;11.48;;;6.40;;
20012;SDS011;76844;42.852;23.042;2024-02-26T12:55:53;7.70;;;5.20;;
20012;SDS011;76844;42.852;23.042;2024-02-26T12:58:28;13.07;;;8.35;;
20012;SDS011;76844;42.852;23.042;2024-02-26T13:01:04;10.98;;;6.47;;
20012;SDS011;76844;42.852;23.042;2024-02-26T13:03:35;14.20;;;6.00;;
20012;SDS011;76844;42.852;23.042;2024-02-26T13:06:06;12.75;;;6.18;;
20012;SDS011;76844;42.852;23.042;2024-02-26T13:08:38;12.10;;;6.32;;
20012;SDS011;76844;42.852;23.042;2024-02-26T13:11:08;6.68;;;5.45;;
20012;SDS011;76844;42.852;23.042;2024-02-26T13:13:40;9.70;;;5.32;;
20012;SDS011;76844;42.852;23.042;2024-02-26T13:16:10;8.48;;;5.70;;
20012;SDS011;76844;42.852;23.042;2024-02-26T13:18:43;10.55;;;5.57;;
20012;SDS011;76844;42.852;23.042;2024-02-26T13:21:15;8.25;;;5.40;;
20012;SDS011;76844;42.852;23.042;2024-02-26T13:23:51;8.88;;;5.85;;
20012;SDS011;76844;42.852;23.042;2024-02-26T13:26:22;9.18;;;6.20;;
20012;SDS011;76844;42.852;23.042;2024-02-26T13:29:02;9.60;;;6.35;;
20012;SDS011;76844;42.852;23.042;2024-02-26T13:31:38;12.25;;;6.50;;
20012;SDS011;76844;42.852;23.042;2024-02-26T13:34:11;13.27;;;5.93;;
20012;SDS011;76844;42.852;23.042;2024-02-26T13:36:52;9.63;;;5.88;;
20012;SDS011;76844;42.852;23.042;2024-02-26T13:39:24;7.40;;;5.57;;
20012;SDS011;76844;42.852;23.042;2024-02-26T13:41:54;8.80;;;5.63;;
20012;SDS011;76844;42.852;23.042;2024-02-26T13:44:26;7.57;;;5.22;;
20012;SDS011;76844;42.852;23.042;2024-02-26T13:46:55;11.80;;;5.50;;
20012;SDS011;76844;42.852;23.042;2024-02-26T13:49:25;9.05;;;5.10;;
20012;SDS011;76844;42.852;23.042;2024-02-26T13:51:54;9.55;;;5.47;;
20012;SDS011;76844;42.852;23.042;2024-02-26T13:54:25;9.85;;;5.30;;
20012;SDS011;76844;42.852;23.042;2024-02-26T13:56:58;16.70;;;6.47;;
20012;SDS011;76844;42.852;23.042;2024-02-26T13:59:32;8.98;;;5.60;;
20012;SDS011;76844;42.852;23.042;2024-02-26T14:02:02;12.63;;;6.00;;
20012;SDS011;76844;42.852;23.042;2024-02-26T14:04:32;16.33;;;5.82;;
20012;SDS011;76844;42.852;23.042;2024-02-26T14:07:02;10.48;;;5.88;;
20012;SDS011;76844;42.852;23.042;2024-02-26T14:09:34;11.70;;;5.97;;
20012;SDS011;76844;42.852;23.042;2024-02-26T14:12:16;9.80;;;6.10;;
20012;SDS011;76844;42.852;23.042;2024-02-26T14:14:53;15.38;;;6.97;;
20012;SDS011;76844;42.852;23.042;2024-02-26T14:17:23;8.32;;;5.45;;
20012;SDS011;76844;42.852;23.042;2024-02-26T14:19:52;11.75;;;6.78;;
20012;SDS011;76844;42.852;23.042;2024-02-26T14:22:22;8.25;;;5.43;;
20012;SDS011;76844;42.852;23.042;2024-02-26T14:24:54;9.60;;;5.30;;
20012;SDS011;76844;42.852;23.042;2024-02-26T14:27:23;10.57;;;6.38;;
20012;SDS011;76844;42.852;23.042;2024-02-26T14:29:56;11.02;;;6.30;;
20012;SDS011;76844;42.852;23.042;2024-02-26T14:32:26;11.35;;;5.45;;
20012;SDS011;76844;42.852;23.042;2024-02-26T14:34:56;13.45;;;6.85;;
20012;SDS011;76844;42.852;23.042;2024-02-26T14:37:26;31.05;;;9.07;;
20012;SDS011;76844;42.852;23.042;2024-02-26T14:39:55;26.33;;;7.25;;
20012;SDS011;76844;42.852;23.042;2024-02-26T14:42:25;12.40;;;5.25;;
20012;SDS011;76844;42.852;23.042;2024-02-26T14:44:56;7.20;;;4.72;;
20012;SDS011;76844;42.852;23.042;2024-02-26T14:47:29;16.58;;;5.20;;
20012;SDS011;76844;42.852;23.042;2024-02-26T14:49:59;12.38;;;5.45;;
20012;SDS011;76844;42.852;23.042;2024-02-26T14:52:29;7.38;;;4.65;;
20012;SDS011;76844;42.852;23.042;2024-02-26T14:55:00;10.23;;;5.43;;